sensor_id;sensor_type;location;lat;lon;timestamp;P1;durP1;ratioP1;P2;durP2;ratioP2
59374;SDS011;45172;55.006;73.460;2023-06-24T00:01:31;34.35;;;12.85;;
59374;SDS011;45172;55.006;73.460;2023-06-24T00:03:57;31.23;;;13.30;;
59374;SDS011;45172;55.006;73.460;2023-06-24T00:06:23;37.25;;;13.43;;
59374;SDS011;45172;55.006;73.460;2023-06-24T00:08:52;49.60;;;14.50;;
59374;SDS011;45172;55.006;73.460;2023-06-24T00:11:22;34.28;;;13.90;;
59374;SDS011;45172;55.006;73.460;2023-06-24T00:13:48;51.83;;;17.25;;
59374;SDS011;45172;55.006;73.460;2023-06-24T00:16:14;40.90;;;15.63;;
59374;SDS011;45172;55.006;73.460;2023-06-24T00:18:40;63.67;;;24.50;;
59374;SDS011;45172;55.006;73.460;2023-06-24T00:21:07;46.17;;;13.93;;
59374;SDS011;45172;55.006;73.460;2023-06-24T00:23:33;58.47;;;22.88;;
59374;SDS011;45172;55.006;73.460;2023-06-24T00:26:01;31.83;;;12.95;;
59374;SDS011;45172;55.006;73.460;2023-06-24T00:28:28;47.72;;;21.17;;
59374;SDS011;45172;55.006;73.460;2023-06-24T00:30:54;31.50;;;12.60;;
59374;SDS011;45172;55.006;73.460;2023-06-24T00:33:21;47.63;;;22.13;;
59374;SDS011;45172;55.006;73.460;2023-06-24T00:35:48;64.32;;;25.42;;
59374;SDS011;45172;55.006;73.460;2023-06-24T00:38:14;62.25;;;27.52;;
59374;SDS011;45172;55.006;73.460;2023-06-24T00:40:41;42.15;;;14.80;;
59374;SDS011;45172;55.006;73.460;2023-06-24T00:43:09;49.53;;;22.55;;
59374;SDS011;45172;55.006;73.460;2023-06-24T00:45:35;42.00;;;20.75;;
59374;SDS011;45172;55.006;73.460;2023-06-24T00:48:02;46.40;;;20.45;;
59374;SDS011;45172;55.006;73.460;2023-06-24T00:50:28;53.63;;;20.70;;
59374;SDS011;45172;55.006;73.460;2023-06-24T00:52:55;36.53;;;16.88;;
59374;SDS011;45172;55.006;73.460;2023-06-24T00:55:21;31.70;;;10.52;;
59374;SDS011;45172;55.006;73.460;2023-06-24T00:57:49;33.92;;;15.65;;
59374;SDS011;45172;55.006;73.460;2023-06-24T01:00:19;36.15;;;18.10;;
59374;SDS011;45172;55.006;73.460;2023-06-24T01:02:47;39.25;;;18.92;;
59374;SDS011;45172;55.006;73.460;2023-06-24T01:05:15;57.40;;;31.58;;
59374;SDS011;45172;55.006;73.460;2023-06-24T01:07:42;35.67;;;19.20;;
59374;SDS011;45172;55.006;73.460;2023-06-24T01:10:09;26.63;;;12.38;;
59374;SDS011;45172;55.006;73.460;2023-06-24T01:12:38;24.20;;;12.07;;
59374;SDS011;45172;55.006;73.460;2023-06-24T01:15:06;26.70;;;10.43;;
59374;SDS011;45172;55.006;73.460;2023-06-24T01:17:44;20.05;;;9.93;;
59374;SDS011;45172;55.006;73.460;2023-06-24T01:20:31;21.90;;;11.65;;
59374;SDS011;45172;55.006;73.460;2023-06-24T01:26:19;22.10;;;10.30;;
59374;SDS011;45172;55.006;73.460;2023-06-24T01:31:47;20.63;;;9.38;;
59374;SDS011;45172;55.006;73.460;2023-06-24T01:36:43;14.35;;;7.03;;
59374;SDS011;45172;55.006;73.460;2023-06-24T01:39:12;12.88;;;5.90;;
59374;SDS011;45172;55.006;73.460;2023-06-24T01:41:43;13.68;;;6.10;;
59374;SDS011;45172;55.006;73.460;2023-06-24T01:44:15;16.77;;;5.93;;
59374;SDS011;45172;55.006;73.460;2023-06-24T01:46:44;7.88;;;4.55;;
59374;SDS011;45172;55.006;73.460;2023-06-24T01:49:14;17.85;;;5.35;;
59374;SDS011;45172;55.006;73.460;2023-06-24T01:51:42;14.77;;;6.03;;
59374;SDS011;45172;55.006;73.460;2023-06-24T01:54:10;18.20;;;5.88;;
59374;SDS011;45172;55.006;73.460;2023-06-24T01:56:39;18.67;;;5.15;;
59374;SDS011;45172;55.006;73.460;2023-06-24T01:59:09;12.20;;;4.03;;
59374;SDS011;45172;55.006;73.460;2023-06-24T02:01:37;11.18;;;3.60;;
59374;SDS011;45172;55.006;73.460;2023-06-24T02:04:04;12.43;;;4.03;;
59374;SDS011;45172;55.006;73.460;2023-06-24T02:06:34;9.02;;;3.25;;
59374;SDS011;45172;55.006;73.460;2023-06-24T02:09:01;7.97;;;3.03;;
59374;SDS011;45172;55.006;73.460;2023-06-24T02:11:30;10.05;;;3.92;;
59374;SDS011;45172;55.006;73.460;2023-06-24T02:14:01;12.02;;;4.88;;
59374;SDS011;45172;55.006;73.460;2023-06-24T02:16:28;10.18;;;5.63;;
59374;SDS011;45172;55.006;73.460;2023-06-24T02:18:55;13.02;;;3.78;;
59374;SDS011;45172;55.006;73.460;2023-06-24T02:21:22;11.07;;;3.95;;
59374;SDS011;45172;55.006;73.460;2023-06-24T02:23:50;5.28;;;3.22;;
59374;SDS011;45172;55.006;73.460;2023-06-24T02:26:17;9.82;;;3.28;;
59374;SDS011;45172;55.006;73.460;2023-06-24T02:28:44;11.55;;;3.67;;
59374;SDS011;45172;55.006;73.460;2023-06-24T02:31:11;8.88;;;2.88;;
59374;SDS011;45172;55.006;73.460;2023-06-24T02:33:40;9.13;;;2.90;;
59374;SDS011;45172;55.006;73.460;2023-06-24T02:36:06;8.63;;;2.50;;
59374;SDS011;45172;55.006;73.460;2023-06-24T02:38:32;8.38;;;1.88;;
59374;SDS011;45172;55.006;73.460;2023-06-24T02:40:58;6.18;;;1.50;;
59374;SDS011;45172;55.006;73.460;2023-06-24T02:43:25;7.65;;;1.70;;
59374;SDS011;45172;55.006;73.460;2023-06-24T02:45:51;3.95;;;1.50;;
59374;SDS011;45172;55.006;73.460;2023-06-24T02:48:19;3.88;;;1.40;;
59374;SDS011;45172;55.006;73.460;2023-06-24T02:50:47;4.30;;;1.65;;
59374;SDS011;45172;55.006;73.460;2023-06-24T02:53:17;4.70;;;1.20;;
59374;SDS011;45172;55.006;73.460;2023-06-24T02:55:43;3.63;;;1.40;;
59374;SDS011;45172;55.006;73.460;2023-06-24T02:58:11;4.10;;;1.10;;
59374;SDS011;45172;55.006;73.460;2023-06-24T03:00:37;3.42;;;1.15;;
59374;SDS011;45172;55.006;73.460;2023-06-24T03:03:04;5.65;;;1.30;;
59374;SDS011;45172;55.006;73.460;2023-06-24T03:05:31;2.00;;;1.20;;
59374;SDS011;45172;55.006;73.460;2023-06-24T03:08:00;6.28;;;1.30;;
59374;SDS011;45172;55.006;73.460;2023-06-24T03:10:29;3.25;;;1.50;;
59374;SDS011;45172;55.006;73.460;2023-06-24T03:12:55;3.13;;;1.45;;
59374;SDS011;45172;55.006;73.460;2023-06-24T03:15:21;3.78;;;1.55;;
59374;SDS011;45172;55.006;73.460;2023-06-24T03:17:48;4.45;;;1.20;;
59374;SDS011;45172;55.006;73.460;2023-06-24T03:20:16;3.30;;;1.30;;
59374;SDS011;45172;55.006;73.460;2023-06-24T03:22:42;3.72;;;1.10;;
59374;SDS011;45172;55.006;73.460;2023-06-24T03:25:08;2.20;;;1.10;;
59374;SDS011;45172;55.006;73.460;2023-06-24T03:27:34;3.53;;;1.10;;
59374;SDS011;45172;55.006;73.460;2023-06-24T03:30:00;4.15;;;1.45;;
59374;SDS011;45172;55.006;73.460;2023-06-24T03:32:26;5.63;;;1.55;;
59374;SDS011;45172;55.006;73.460;2023-06-24T03:34:52;3.08;;;1.60;;
59374;SDS011;45172;55.006;73.460;2023-06-24T03:37:18;9.10;;;4.30;;
59374;SDS011;45172;55.006;73.460;2023-06-24T03:39:45;7.70;;;2.45;;
59374;SDS011;45172;55.006;73.460;2023-06-24T03:42:11;14.85;;;5.13;;
59374;SDS011;45172;55.006;73.460;2023-06-24T03:44:37;4.60;;;1.98;;
59374;SDS011;45172;55.006;73.460;2023-06-24T03:47:03;8.20;;;1.85;;
59374;SDS011;45172;55.006;73.460;2023-06-24T03:49:29;8.48;;;3.72;;
59374;SDS011;45172;55.006;73.460;2023-06-24T03:51:55;4.90;;;1.48;;
59374;SDS011;45172;55.006;73.460;2023-06-24T03:54:21;5.60;;;1.80;;
59374;SDS011;45172;55.006;73.460;2023-06-24T03:56:47;2.58;;;1.13;;
59374;SDS011;45172;55.006;73.460;2023-06-24T03:59:13;3.78;;;1.50;;
59374;SDS011;45172;55.006;73.460;2023-06-24T04:01:40;2.03;;;1.30;;
59374;SDS011;45172;55.006;73.460;2023-06-24T04:04:06;1.95;;;1.30;;
59374;SDS011;45172;55.006;73.460;2023-06-24T04:06:31;3.47;;;1.25;;
59374;SDS011;45172;55.006;73.460;2023-06-24T04:09:01;5.43;;;1.35;;
59374;SDS011;45172;55.006;73.460;2023-06-24T04:11:28;10.30;;;1.65;;
59374;SDS011;45172;55.006;73.460;2023-06-24T04:13:54;6.50;;;1.60;;
59374;SDS011;45172;55.006;73.460;2023-06-24T04:16:19;5.03;;;1.40;;
59374;SDS011;45172;55.006;73.460;2023-06-24T04:18:46;2.58;;;1.38;;
59374;SDS011;45172;55.006;73.460;2023-06-24T04:21:12;6.22;;;1.50;;
59374;SDS011;45172;55.006;73.460;2023-06-24T04:23:39;6.93;;;1.35;;
59374;SDS011;45172;55.006;73.460;2023-06-24T04:26:05;6.22;;;1.55;;
59374;SDS011;45172;55.006;73.460;2023-06-24T04:28:31;7.22;;;1.50;;
59374;SDS011;45172;55.006;73.460;2023-06-24T04:30:57;6.53;;;1.20;;
59374;SDS011;45172;55.006;73.460;2023-06-24T04:33:24;3.40;;;1.45;;
59374;SDS011;45172;55.006;73.460;2023-06-24T04:35:50;5.85;;;1.50;;
59374;SDS011;45172;55.006;73.460;2023-06-24T04:38:16;4.30;;;1.10;;
59374;SDS011;45172;55.006;73.460;2023-06-24T04:40:44;4.05;;;2.83;;
59374;SDS011;45172;55.006;73.460;2023-06-24T04:43:11;3.03;;;1.95;;
59374;SDS011;45172;55.006;73.460;2023-06-24T04:45:37;3.20;;;1.33;;
59374;SDS011;45172;55.006;73.460;2023-06-24T04:48:03;2.63;;;1.30;;
59374;SDS011;45172;55.006;73.460;2023-06-24T04:50:29;5.93;;;1.50;;
59374;SDS011;45172;55.006;73.460;2023-06-24T04:52:55;4.72;;;1.48;;
59374;SDS011;45172;55.006;73.460;2023-06-24T04:55:22;4.32;;;1.38;;
59374;SDS011;45172;55.006;73.460;2023-06-24T04:57:48;5.32;;;1.38;;
59374;SDS011;45172;55.006;73.460;2023-06-24T05:00:14;2.53;;;1.38;;
59374;SDS011;45172;55.006;73.460;2023-06-24T05:02:41;6.07;;;1.40;;
59374;SDS011;45172;55.006;73.460;2023-06-24T05:05:07;3.45;;;1.88;;
59374;SDS011;45172;55.006;73.460;2023-06-24T05:07:33;3.95;;;1.77;;
59374;SDS011;45172;55.006;73.460;2023-06-24T05:09:59;3.47;;;1.98;;
59374;SDS011;45172;55.006;73.460;2023-06-24T05:12:30;7.97;;;2.85;;
59374;SDS011;45172;55.006;73.460;2023-06-24T05:14:56;3.03;;;1.98;;
59374;SDS011;45172;55.006;73.460;2023-06-24T05:17:22;6.22;;;1.80;;
59374;SDS011;45172;55.006;73.460;2023-06-24T05:19:48;5.30;;;1.92;;
59374;SDS011;45172;55.006;73.460;2023-06-24T05:22:16;5.13;;;2.65;;
59374;SDS011;45172;55.006;73.460;2023-06-24T05:24:42;3.92;;;1.52;;
59374;SDS011;45172;55.006;73.460;2023-06-24T05:27:09;4.03;;;1.38;;
59374;SDS011;45172;55.006;73.460;2023-06-24T05:29:35;1.58;;;1.15;;
59374;SDS011;45172;55.006;73.460;2023-06-24T05:32:01;2.40;;;1.35;;
59374;SDS011;45172;55.006;73.460;2023-06-24T05:34:29;1.88;;;1.30;;
59374;SDS011;45172;55.006;73.460;2023-06-24T05:36:56;4.50;;;1.35;;
59374;SDS011;45172;55.006;73.460;2023-06-24T05:39:22;5.28;;;1.65;;
59374;SDS011;45172;55.006;73.460;2023-06-24T05:41:48;11.90;;;3.50;;
59374;SDS011;45172;55.006;73.460;2023-06-24T05:44:14;3.03;;;1.70;;
59374;SDS011;45172;55.006;73.460;2023-06-24T05:46:41;20.92;;;8.18;;
59374;SDS011;45172;55.006;73.460;2023-06-24T05:49:09;4.85;;;1.50;;
59374;SDS011;45172;55.006;73.460;2023-06-24T05:51:35;2.53;;;1.30;;
59374;SDS011;45172;55.006;73.460;2023-06-24T05:54:01;18.05;;;10.98;;
59374;SDS011;45172;55.006;73.460;2023-06-24T05:56:26;4.07;;;1.58;;
59374;SDS011;45172;55.006;73.460;2023-06-24T05:58:52;12.45;;;1.60;;
59374;SDS011;45172;55.006;73.460;2023-06-24T06:01:19;2.25;;;2.03;;
59374;SDS011;45172;55.006;73.460;2023-06-24T06:03:46;5.10;;;3.40;;
59374;SDS011;45172;55.006;73.460;2023-06-24T06:06:14;2.55;;;1.30;;
59374;SDS011;45172;55.006;73.460;2023-06-24T06:08:40;7.32;;;1.67;;
59374;SDS011;45172;55.006;73.460;2023-06-24T06:11:06;4.25;;;1.38;;
59374;SDS011;45172;55.006;73.460;2023-06-24T06:13:32;2.95;;;1.10;;
59374;SDS011;45172;55.006;73.460;2023-06-24T06:15:59;2.70;;;1.20;;
59374;SDS011;45172;55.006;73.460;2023-06-24T06:18:25;2.05;;;1.17;;
59374;SDS011;45172;55.006;73.460;2023-06-24T06:20:52;1.83;;;1.10;;
59374;SDS011;45172;55.006;73.460;2023-06-24T06:23:18;4.85;;;1.20;;
59374;SDS011;45172;55.006;73.460;2023-06-24T06:25:44;2.10;;;1.30;;
59374;SDS011;45172;55.006;73.460;2023-06-24T06:28:10;1.95;;;1.15;;
59374;SDS011;45172;55.006;73.460;2023-06-24T06:30:36;1.90;;;1.20;;
59374;SDS011;45172;55.006;73.460;2023-06-24T06:33:02;2.17;;;1.15;;
59374;SDS011;45172;55.006;73.460;2023-06-24T06:35:28;2.75;;;1.20;;
59374;SDS011;45172;55.006;73.460;2023-06-24T06:37:56;3.47;;;1.10;;
59374;SDS011;45172;55.006;73.460;2023-06-24T06:40:23;3.47;;;1.05;;
59374;SDS011;45172;55.006;73.460;2023-06-24T06:42:49;1.10;;;0.90;;
59374;SDS011;45172;55.006;73.460;2023-06-24T06:45:16;4.22;;;1.50;;
59374;SDS011;45172;55.006;73.460;2023-06-24T06:47:42;5.20;;;1.40;;
59374;SDS011;45172;55.006;73.460;2023-06-24T06:50:08;2.13;;;1.30;;
59374;SDS011;45172;55.006;73.460;2023-06-24T06:52:35;3.00;;;1.08;;
59374;SDS011;45172;55.006;73.460;2023-06-24T06:55:01;6.75;;;1.10;;
59374;SDS011;45172;55.006;73.460;2023-06-24T06:57:27;3.55;;;1.10;;
59374;SDS011;45172;55.006;73.460;2023-06-24T06:59:53;2.45;;;0.90;;
59374;SDS011;45172;55.006;73.460;2023-06-24T07:02:20;8.00;;;1.30;;
59374;SDS011;45172;55.006;73.460;2023-06-24T07:04:46;1.98;;;1.17;;
59374;SDS011;45172;55.006;73.460;2023-06-24T07:07:13;4.07;;;1.10;;
59374;SDS011;45172;55.006;73.460;2023-06-24T07:09:39;3.72;;;1.15;;
59374;SDS011;45172;55.006;73.460;2023-06-24T07:12:08;11.73;;;1.60;;
59374;SDS011;45172;55.006;73.460;2023-06-24T07:14:35;13.57;;;5.68;;
59374;SDS011;45172;55.006;73.460;2023-06-24T07:17:01;2.83;;;2.58;;
59374;SDS011;45172;55.006;73.460;2023-06-24T07:19:27;4.82;;;1.33;;
59374;SDS011;45172;55.006;73.460;2023-06-24T07:21:53;1.58;;;1.10;;
59374;SDS011;45172;55.006;73.460;2023-06-24T07:24:23;3.47;;;1.30;;
59374;SDS011;45172;55.006;73.460;2023-06-24T07:26:49;4.25;;;3.42;;
59374;SDS011;45172;55.006;73.460;2023-06-24T07:29:15;2.55;;;1.90;;
59374;SDS011;45172;55.006;73.460;2023-06-24T07:31:41;17.35;;;10.73;;
59374;SDS011;45172;55.006;73.460;2023-06-24T07:34:07;6.57;;;3.30;;
59374;SDS011;45172;55.006;73.460;2023-06-24T07:36:33;7.80;;;4.53;;
59374;SDS011;45172;55.006;73.460;2023-06-24T07:39:00;3.40;;;1.65;;
59374;SDS011;45172;55.006;73.460;2023-06-24T07:41:26;1.50;;;1.40;;
59374;SDS011;45172;55.006;73.460;2023-06-24T07:43:52;5.50;;;1.52;;
59374;SDS011;45172;55.006;73.460;2023-06-24T07:46:18;4.00;;;1.10;;
59374;SDS011;45172;55.006;73.460;2023-06-24T07:48:44;8.43;;;5.63;;
59374;SDS011;45172;55.006;73.460;2023-06-24T07:51:10;1.42;;;1.20;;
59374;SDS011;45172;55.006;73.460;2023-06-24T07:53:36;3.13;;;1.40;;
59374;SDS011;45172;55.006;73.460;2023-06-24T07:56:02;2.50;;;1.30;;
59374;SDS011;45172;55.006;73.460;2023-06-24T07:58:30;3.05;;;1.90;;
59374;SDS011;45172;55.006;73.460;2023-06-24T08:00:56;4.70;;;2.25;;
59374;SDS011;45172;55.006;73.460;2023-06-24T08:03:22;3.40;;;3.10;;
59374;SDS011;45172;55.006;73.460;2023-06-24T08:05:48;6.93;;;4.40;;
59374;SDS011;45172;55.006;73.460;2023-06-24T08:08:15;12.98;;;1.63;;
59374;SDS011;45172;55.006;73.460;2023-06-24T08:10:41;3.42;;;1.30;;
59374;SDS011;45172;55.006;73.460;2023-06-24T08:13:07;4.32;;;1.52;;
59374;SDS011;45172;55.006;73.460;2023-06-24T08:15:33;2.03;;;1.30;;
59374;SDS011;45172;55.006;73.460;2023-06-24T08:17:59;3.60;;;1.40;;
59374;SDS011;45172;55.006;73.460;2023-06-24T08:20:25;7.50;;;1.60;;
59374;SDS011;45172;55.006;73.460;2023-06-24T08:22:51;6.15;;;1.40;;
59374;SDS011;45172;55.006;73.460;2023-06-24T08:25:17;4.57;;;2.70;;
59374;SDS011;45172;55.006;73.460;2023-06-24T08:27:44;9.82;;;3.35;;
59374;SDS011;45172;55.006;73.460;2023-06-24T08:30:12;7.70;;;2.92;;
59374;SDS011;45172;55.006;73.460;2023-06-24T08:32:43;6.05;;;1.45;;
59374;SDS011;45172;55.006;73.460;2023-06-24T08:35:09;7.47;;;1.90;;
59374;SDS011;45172;55.006;73.460;2023-06-24T08:37:43;3.28;;;1.63;;
59374;SDS011;45172;55.006;73.460;2023-06-24T08:40:09;2.65;;;1.38;;
59374;SDS011;45172;55.006;73.460;2023-06-24T08:42:36;4.07;;;1.10;;
59374;SDS011;45172;55.006;73.460;2023-06-24T08:45:05;2.95;;;1.45;;
59374;SDS011;45172;55.006;73.460;2023-06-24T08:47:31;4.80;;;1.60;;
59374;SDS011;45172;55.006;73.460;2023-06-24T08:50:06;6.22;;;1.67;;
59374;SDS011;45172;55.006;73.460;2023-06-24T08:52:42;1.80;;;1.42;;
59374;SDS011;45172;55.006;73.460;2023-06-24T08:55:12;6.65;;;2.13;;
59374;SDS011;45172;55.006;73.460;2023-06-24T08:57:42;5.07;;;2.30;;
59374;SDS011;45172;55.006;73.460;2023-06-24T09:00:08;4.63;;;1.50;;
59374;SDS011;45172;55.006;73.460;2023-06-24T09:02:36;3.85;;;3.17;;
59374;SDS011;45172;55.006;73.460;2023-06-24T09:05:04;4.13;;;1.42;;
59374;SDS011;45172;55.006;73.460;2023-06-24T09:07:32;4.97;;;1.83;;
59374;SDS011;45172;55.006;73.460;2023-06-24T09:09:58;5.55;;;1.88;;
59374;SDS011;45172;55.006;73.460;2023-06-24T09:12:26;4.97;;;2.65;;
59374;SDS011;45172;55.006;73.460;2023-06-24T09:14:52;3.05;;;1.30;;
59374;SDS011;45172;55.006;73.460;2023-06-24T09:17:19;5.78;;;1.60;;
59374;SDS011;45172;55.006;73.460;2023-06-24T09:19:48;2.55;;;1.20;;
59374;SDS011;45172;55.006;73.460;2023-06-24T09:22:15;5.95;;;1.50;;
59374;SDS011;45172;55.006;73.460;2023-06-24T09:24:44;9.27;;;2.75;;
59374;SDS011;45172;55.006;73.460;2023-06-24T09:27:17;4.47;;;2.25;;
59374;SDS011;45172;55.006;73.460;2023-06-24T09:29:47;15.70;;;6.55;;
59374;SDS011;45172;55.006;73.460;2023-06-24T09:32:13;28.08;;;4.45;;
59374;SDS011;45172;55.006;73.460;2023-06-24T09:34:40;5.80;;;2.17;;
59374;SDS011;45172;55.006;73.460;2023-06-24T09:37:06;3.10;;;1.40;;
59374;SDS011;45172;55.006;73.460;2023-06-24T09:39:35;3.78;;;1.33;;
59374;SDS011;45172;55.006;73.460;2023-06-24T09:42:02;4.85;;;1.30;;
59374;SDS011;45172;55.006;73.460;2023-06-24T09:44:30;5.88;;;1.42;;
59374;SDS011;45172;55.006;73.460;2023-06-24T09:46:57;4.50;;;1.58;;
59374;SDS011;45172;55.006;73.460;2023-06-24T09:49:24;4.18;;;1.00;;
59374;SDS011;45172;55.006;73.460;2023-06-24T09:51:54;2.00;;;1.40;;
59374;SDS011;45172;55.006;73.460;2023-06-24T09:54:24;4.10;;;2.17;;
59374;SDS011;45172;55.006;73.460;2023-06-24T09:56:52;8.00;;;6.00;;
59374;SDS011;45172;55.006;73.460;2023-06-24T09:59:20;7.32;;;2.72;;
59374;SDS011;45172;55.006;73.460;2023-06-24T10:01:47;11.27;;;1.67;;
59374;SDS011;45172;55.006;73.460;2023-06-24T10:04:18;7.57;;;1.48;;
59374;SDS011;45172;55.006;73.460;2023-06-24T10:06:45;3.03;;;1.50;;
59374;SDS011;45172;55.006;73.460;2023-06-24T10:09:14;5.47;;;2.60;;
59374;SDS011;45172;55.006;73.460;2023-06-24T10:11:43;3.35;;;2.10;;
59374;SDS011;45172;55.006;73.460;2023-06-24T10:14:10;3.80;;;1.80;;
59374;SDS011;45172;55.006;73.460;2023-06-24T10:16:36;4.72;;;2.00;;
59374;SDS011;45172;55.006;73.460;2023-06-24T10:19:03;3.92;;;2.28;;
59374;SDS011;45172;55.006;73.460;2023-06-24T10:24:39;2.88;;;1.40;;
59374;SDS011;45172;55.006;73.460;2023-06-24T10:27:08;3.47;;;1.50;;
59374;SDS011;45172;55.006;73.460;2023-06-24T10:29:44;5.70;;;1.58;;
59374;SDS011;45172;55.006;73.460;2023-06-24T10:32:11;2.95;;;1.60;;
59374;SDS011;45172;55.006;73.460;2023-06-24T10:44:51;3.65;;;1.98;;
59374;SDS011;45172;55.006;73.460;2023-06-24T10:47:19;5.05;;;2.78;;
59374;SDS011;45172;55.006;73.460;2023-06-24T10:49:47;12.77;;;3.47;;
59374;SDS011;45172;55.006;73.460;2023-06-24T10:52:13;8.45;;;2.45;;
59374;SDS011;45172;55.006;73.460;2023-06-24T10:54:39;2.67;;;1.92;;
59374;SDS011;45172;55.006;73.460;2023-06-24T10:57:07;4.18;;;2.70;;
59374;SDS011;45172;55.006;73.460;2023-06-24T10:59:34;7.65;;;3.05;;
59374;SDS011;45172;55.006;73.460;2023-06-24T11:02:00;6.45;;;4.18;;
59374;SDS011;45172;55.006;73.460;2023-06-24T11:04:27;11.57;;;5.90;;
59374;SDS011;45172;55.006;73.460;2023-06-24T11:06:58;3.97;;;2.42;;
59374;SDS011;45172;55.006;73.460;2023-06-24T11:09:25;7.33;;;2.67;;
59374;SDS011;45172;55.006;73.460;2023-06-24T11:11:53;5.47;;;2.75;;
59374;SDS011;45172;55.006;73.460;2023-06-24T11:14:21;9.38;;;3.22;;
59374;SDS011;45172;55.006;73.460;2023-06-24T11:16:48;4.20;;;1.95;;
59374;SDS011;45172;55.006;73.460;2023-06-24T11:19:15;5.78;;;1.98;;
59374;SDS011;45172;55.006;73.460;2023-06-24T11:21:41;4.00;;;1.60;;
59374;SDS011;45172;55.006;73.460;2023-06-24T11:24:07;4.05;;;1.67;;
59374;SDS011;45172;55.006;73.460;2023-06-24T11:26:33;11.50;;;2.92;;
59374;SDS011;45172;55.006;73.460;2023-06-24T11:29:00;6.80;;;2.45;;
59374;SDS011;45172;55.006;73.460;2023-06-24T11:31:26;3.80;;;1.50;;
59374;SDS011;45172;55.006;73.460;2023-06-24T11:33:53;3.90;;;1.95;;
59374;SDS011;45172;55.006;73.460;2023-06-24T11:36:20;8.93;;;4.57;;
59374;SDS011;45172;55.006;73.460;2023-06-24T11:38:47;5.85;;;2.67;;
59374;SDS011;45172;55.006;73.460;2023-06-24T11:41:14;8.40;;;3.80;;
59374;SDS011;45172;55.006;73.460;2023-06-24T11:43:47;9.02;;;4.60;;
59374;SDS011;45172;55.006;73.460;2023-06-24T11:46:29;14.10;;;3.23;;
59374;SDS011;45172;55.006;73.460;2023-06-24T11:49:06;6.78;;;3.35;;
59374;SDS011;45172;55.006;73.460;2023-06-24T11:51:33;3.17;;;2.00;;
59374;SDS011;45172;55.006;73.460;2023-06-24T11:54:01;13.88;;;2.75;;
59374;SDS011;45172;55.006;73.460;2023-06-24T11:59:05;4.68;;;3.42;;
59374;SDS011;45172;55.006;73.460;2023-06-24T12:01:33;13.13;;;4.75;;
59374;SDS011;45172;55.006;73.460;2023-06-24T12:04:14;7.35;;;3.47;;
59374;SDS011;45172;55.006;73.460;2023-06-24T12:06:42;8.50;;;5.65;;
59374;SDS011;45172;55.006;73.460;2023-06-24T12:09:17;8.40;;;4.20;;
59374;SDS011;45172;55.006;73.460;2023-06-24T12:11:43;5.85;;;3.47;;
59374;SDS011;45172;55.006;73.460;2023-06-24T12:14:09;13.88;;;6.15;;
59374;SDS011;45172;55.006;73.460;2023-06-24T12:16:35;9.48;;;5.45;;
59374;SDS011;45172;55.006;73.460;2023-06-24T12:19:01;13.50;;;5.68;;
59374;SDS011;45172;55.006;73.460;2023-06-24T12:21:28;13.02;;;7.35;;
59374;SDS011;45172;55.006;73.460;2023-06-24T12:23:55;8.77;;;3.38;;
59374;SDS011;45172;55.006;73.460;2023-06-24T12:26:21;7.15;;;3.47;;
59374;SDS011;45172;55.006;73.460;2023-06-24T12:28:48;15.50;;;3.33;;
59374;SDS011;45172;55.006;73.460;2023-06-24T12:31:14;14.45;;;4.10;;
59374;SDS011;45172;55.006;73.460;2023-06-24T12:33:40;14.55;;;3.78;;
59374;SDS011;45172;55.006;73.460;2023-06-24T12:36:06;16.17;;;3.50;;
59374;SDS011;45172;55.006;73.460;2023-06-24T12:38:33;20.08;;;4.18;;
59374;SDS011;45172;55.006;73.460;2023-06-24T12:41:01;39.17;;;7.68;;
59374;SDS011;45172;55.006;73.460;2023-06-24T12:43:27;25.88;;;7.43;;
59374;SDS011;45172;55.006;73.460;2023-06-24T12:45:54;20.52;;;6.28;;
59374;SDS011;45172;55.006;73.460;2023-06-24T12:48:21;20.90;;;7.72;;
59374;SDS011;45172;55.006;73.460;2023-06-24T12:50:47;21.95;;;6.55;;
59374;SDS011;45172;55.006;73.460;2023-06-24T12:53:18;12.95;;;3.90;;
59374;SDS011;45172;55.006;73.460;2023-06-24T12:55:47;39.50;;;5.15;;
59374;SDS011;45172;55.006;73.460;2023-06-24T12:58:13;16.65;;;4.82;;
59374;SDS011;45172;55.006;73.460;2023-06-24T13:00:44;14.77;;;5.28;;
59374;SDS011;45172;55.006;73.460;2023-06-24T13:03:10;16.45;;;5.50;;
59374;SDS011;45172;55.006;73.460;2023-06-24T13:05:36;11.23;;;4.57;;
59374;SDS011;45172;55.006;73.460;2023-06-24T13:08:02;20.65;;;6.28;;
59374;SDS011;45172;55.006;73.460;2023-06-24T13:10:28;28.30;;;5.88;;
59374;SDS011;45172;55.006;73.460;2023-06-24T13:12:54;43.78;;;8.00;;
59374;SDS011;45172;55.006;73.460;2023-06-24T13:15:21;49.63;;;11.80;;
59374;SDS011;45172;55.006;73.460;2023-06-24T13:17:47;40.67;;;11.10;;
59374;SDS011;45172;55.006;73.460;2023-06-24T13:20:13;40.63;;;13.85;;
59374;SDS011;45172;55.006;73.460;2023-06-24T13:22:39;46.97;;;11.98;;
59374;SDS011;45172;55.006;73.460;2023-06-24T13:25:05;37.15;;;9.88;;
59374;SDS011;45172;55.006;73.460;2023-06-24T13:27:32;29.48;;;10.73;;
59374;SDS011;45172;55.006;73.460;2023-06-24T13:29:58;35.22;;;9.60;;
59374;SDS011;45172;55.006;73.460;2023-06-24T13:32:24;29.85;;;9.65;;
59374;SDS011;45172;55.006;73.460;2023-06-24T13:34:50;25.52;;;9.65;;
59374;SDS011;45172;55.006;73.460;2023-06-24T13:37:17;48.85;;;23.63;;
59374;SDS011;45172;55.006;73.460;2023-06-24T13:39:42;22.50;;;9.52;;
59374;SDS011;45172;55.006;73.460;2023-06-24T13:42:12;21.92;;;9.30;;
59374;SDS011;45172;55.006;73.460;2023-06-24T13:44:38;22.88;;;12.23;;
59374;SDS011;45172;55.006;73.460;2023-06-24T13:47:04;21.48;;;9.50;;
59374;SDS011;45172;55.006;73.460;2023-06-24T13:49:31;17.33;;;10.23;;
59374;SDS011;45172;55.006;73.460;2023-06-24T13:51:57;16.85;;;7.72;;
59374;SDS011;45172;55.006;73.460;2023-06-24T13:54:23;14.73;;;8.25;;
59374;SDS011;45172;55.006;73.460;2023-06-24T13:56:50;14.10;;;9.68;;
59374;SDS011;45172;55.006;73.460;2023-06-24T13:59:16;25.23;;;12.90;;
59374;SDS011;45172;55.006;73.460;2023-06-24T14:01:42;19.70;;;10.55;;
59374;SDS011;45172;55.006;73.460;2023-06-24T14:04:07;17.58;;;9.65;;
59374;SDS011;45172;55.006;73.460;2023-06-24T14:06:35;19.83;;;9.48;;
59374;SDS011;45172;55.006;73.460;2023-06-24T14:09:01;152.75;;;127.60;;
59374;SDS011;45172;55.006;73.460;2023-06-24T14:11:27;16.48;;;7.45;;
59374;SDS011;45172;55.006;73.460;2023-06-24T14:13:53;10.38;;;6.88;;
59374;SDS011;45172;55.006;73.460;2023-06-24T14:16:19;10.82;;;6.78;;
59374;SDS011;45172;55.006;73.460;2023-06-24T14:18:46;14.07;;;6.35;;
59374;SDS011;45172;55.006;73.460;2023-06-24T14:21:12;12.70;;;6.43;;
59374;SDS011;45172;55.006;73.460;2023-06-24T14:23:37;12.98;;;6.35;;
59374;SDS011;45172;55.006;73.460;2023-06-24T14:26:05;12.55;;;7.07;;
59374;SDS011;45172;55.006;73.460;2023-06-24T14:28:31;8.65;;;5.28;;
59374;SDS011;45172;55.006;73.460;2023-06-24T14:30:58;14.20;;;7.60;;
59374;SDS011;45172;55.006;73.460;2023-06-24T14:33:24;17.27;;;7.53;;
59374;SDS011;45172;55.006;73.460;2023-06-24T14:35:50;26.00;;;14.65;;
59374;SDS011;45172;55.006;73.460;2023-06-24T14:38:16;36.30;;;9.25;;
59374;SDS011;45172;55.006;73.460;2023-06-24T14:40:42;31.90;;;10.52;;
59374;SDS011;45172;55.006;73.460;2023-06-24T14:43:16;26.27;;;9.23;;
59374;SDS011;45172;55.006;73.460;2023-06-24T14:45:44;20.88;;;8.45;;
59374;SDS011;45172;55.006;73.460;2023-06-24T14:48:10;15.27;;;6.70;;
59374;SDS011;45172;55.006;73.460;2023-06-24T14:50:36;14.52;;;6.65;;
59374;SDS011;45172;55.006;73.460;2023-06-24T14:53:02;11.50;;;5.63;;